sensor_id;sensor_type;location;lat;lon;timestamp;P1;durP1;ratioP1;P2;durP2;ratioP2
57113;SDS011;42994;51.606;9.988;2023-05-10T00:01:34;3.13;;;2.38;;
57113;SDS011;42994;51.606;9.988;2023-05-10T00:04:01;4.70;;;2.63;;
57113;SDS011;42994;51.606;9.988;2023-05-10T00:06:27;4.60;;;2.55;;
57113;SDS011;42994;51.606;9.988;2023-05-10T00:08:54;3.17;;;2.65;;
57113;SDS011;42994;51.606;9.988;2023-05-10T00:11:22;5.30;;;2.42;;
57113;SDS011;42994;51.606;9.988;2023-05-10T00:13:48;5.07;;;2.72;;
57113;SDS011;42994;51.606;9.988;2023-05-10T00:16:15;4.85;;;3.22;;
57113;SDS011;42994;51.606;9.988;2023-05-10T00:18:42;4.13;;;2.38;;
57113;SDS011;42994;51.606;9.988;2023-05-10T00:21:08;3.50;;;2.88;;
57113;SDS011;42994;51.606;9.988;2023-05-10T00:23:35;6.03;;;3.10;;
57113;SDS011;42994;51.606;9.988;2023-05-10T00:26:01;4.68;;;3.00;;
57113;SDS011;42994;51.606;9.988;2023-05-10T00:28:29;4.25;;;3.17;;
57113;SDS011;42994;51.606;9.988;2023-05-10T00:30:56;3.40;;;3.10;;
57113;SDS011;42994;51.606;9.988;2023-05-10T00:33:22;5.47;;;2.80;;
57113;SDS011;42994;51.606;9.988;2023-05-10T00:35:49;4.75;;;3.42;;
57113;SDS011;42994;51.606;9.988;2023-05-10T00:38:15;7.32;;;2.95;;
57113;SDS011;42994;51.606;9.988;2023-05-10T00:40:42;6.93;;;3.35;;
57113;SDS011;42994;51.606;9.988;2023-05-10T00:43:16;4.82;;;3.22;;
57113;SDS011;42994;51.606;9.988;2023-05-10T00:45:44;4.28;;;3.50;;
57113;SDS011;42994;51.606;9.988;2023-05-10T00:48:11;6.18;;;3.35;;
57113;SDS011;42994;51.606;9.988;2023-05-10T00:50:38;6.88;;;3.58;;
57113;SDS011;42994;51.606;9.988;2023-05-10T00:53:05;4.47;;;3.35;;
57113;SDS011;42994;51.606;9.988;2023-05-10T00:55:32;4.72;;;3.55;;
57113;SDS011;42994;51.606;9.988;2023-05-10T00:57:59;5.93;;;3.35;;
57113;SDS011;42994;51.606;9.988;2023-05-10T01:00:26;8.98;;;3.83;;
57113;SDS011;42994;51.606;9.988;2023-05-10T01:02:56;4.30;;;3.53;;
57113;SDS011;42994;51.606;9.988;2023-05-10T01:05:23;7.45;;;3.72;;
57113;SDS011;42994;51.606;9.988;2023-05-10T01:07:49;5.60;;;3.83;;
57113;SDS011;42994;51.606;9.988;2023-05-10T01:10:16;6.80;;;3.50;;
57113;SDS011;42994;51.606;9.988;2023-05-10T01:12:44;6.10;;;3.45;;
57113;SDS011;42994;51.606;9.988;2023-05-10T01:15:13;4.10;;;3.50;;
57113;SDS011;42994;51.606;9.988;2023-05-10T01:17:44;6.35;;;3.58;;
57113;SDS011;42994;51.606;9.988;2023-05-10T01:20:13;5.63;;;3.35;;
57113;SDS011;42994;51.606;9.988;2023-05-10T01:22:45;3.92;;;3.20;;
57113;SDS011;42994;51.606;9.988;2023-05-10T01:25:28;5.30;;;3.38;;
57113;SDS011;42994;51.606;9.988;2023-05-10T01:28:08;4.68;;;3.72;;
57113;SDS011;42994;51.606;9.988;2023-05-10T01:30:57;4.10;;;3.13;;
57113;SDS011;42994;51.606;9.988;2023-05-10T01:33:37;8.30;;;4.00;;
57113;SDS011;42994;51.606;9.988;2023-05-10T01:36:11;8.68;;;3.28;;
57113;SDS011;42994;51.606;9.988;2023-05-10T01:38:47;5.90;;;3.38;;
57113;SDS011;42994;51.606;9.988;2023-05-10T01:41:18;4.10;;;3.35;;
57113;SDS011;42994;51.606;9.988;2023-05-10T01:43:53;5.85;;;3.92;;
57113;SDS011;42994;51.606;9.988;2023-05-10T01:46:24;6.55;;;4.05;;
57113;SDS011;42994;51.606;9.988;2023-05-10T01:48:57;6.60;;;4.55;;
57113;SDS011;42994;51.606;9.988;2023-05-10T01:51:27;6.27;;;4.07;;
57113;SDS011;42994;51.606;9.988;2023-05-10T01:53:59;5.82;;;3.72;;
57113;SDS011;42994;51.606;9.988;2023-05-10T01:56:28;8.00;;;3.90;;
57113;SDS011;42994;51.606;9.988;2023-05-10T01:58:56;4.60;;;3.42;;
57113;SDS011;42994;51.606;9.988;2023-05-10T02:01:26;8.57;;;3.40;;
57113;SDS011;42994;51.606;9.988;2023-05-10T02:03:53;4.88;;;3.42;;
57113;SDS011;42994;51.606;9.988;2023-05-10T02:06:23;3.92;;;3.25;;
57113;SDS011;42994;51.606;9.988;2023-05-10T02:08:52;5.90;;;4.18;;
57113;SDS011;42994;51.606;9.988;2023-05-10T02:11:21;4.28;;;3.40;;
57113;SDS011;42994;51.606;9.988;2023-05-10T02:13:50;10.80;;;4.10;;
57113;SDS011;42994;51.606;9.988;2023-05-10T02:16:25;4.97;;;3.65;;
57113;SDS011;42994;51.606;9.988;2023-05-10T02:18:55;5.95;;;4.18;;
57113;SDS011;42994;51.606;9.988;2023-05-10T02:21:26;7.40;;;3.80;;
57113;SDS011;42994;51.606;9.988;2023-05-10T02:23:54;6.55;;;3.97;;
57113;SDS011;42994;51.606;9.988;2023-05-10T02:26:21;8.32;;;3.83;;
57113;SDS011;42994;51.606;9.988;2023-05-10T02:28:50;4.18;;;3.65;;
57113;SDS011;42994;51.606;9.988;2023-05-10T02:31:18;8.20;;;4.43;;
57113;SDS011;42994;51.606;9.988;2023-05-10T02:33:45;6.53;;;3.95;;
57113;SDS011;42994;51.606;9.988;2023-05-10T02:36:14;6.20;;;4.03;;
57113;SDS011;42994;51.606;9.988;2023-05-10T02:38:44;5.35;;;4.43;;
57113;SDS011;42994;51.606;9.988;2023-05-10T02:41:12;9.35;;;5.47;;
57113;SDS011;42994;51.606;9.988;2023-05-10T02:43:40;8.35;;;4.85;;
57113;SDS011;42994;51.606;9.988;2023-05-10T02:46:09;12.23;;;6.45;;
57113;SDS011;42994;51.606;9.988;2023-05-10T02:48:36;10.10;;;5.50;;
57113;SDS011;42994;51.606;9.988;2023-05-10T02:51:04;11.05;;;5.80;;
57113;SDS011;42994;51.606;9.988;2023-05-10T02:53:34;9.70;;;5.93;;
57113;SDS011;42994;51.606;9.988;2023-05-10T02:56:06;9.70;;;5.43;;
57113;SDS011;42994;51.606;9.988;2023-05-10T02:58:38;9.63;;;5.65;;
57113;SDS011;42994;51.606;9.988;2023-05-10T03:01:05;7.80;;;5.60;;
57113;SDS011;42994;51.606;9.988;2023-05-10T03:03:32;9.55;;;6.35;;
57113;SDS011;42994;51.606;9.988;2023-05-10T03:05:59;9.60;;;6.38;;
57113;SDS011;42994;51.606;9.988;2023-05-10T03:08:26;9.20;;;5.63;;
57113;SDS011;42994;51.606;9.988;2023-05-10T03:10:55;9.32;;;5.88;;
57113;SDS011;42994;51.606;9.988;2023-05-10T03:13:36;10.63;;;6.38;;
57113;SDS011;42994;51.606;9.988;2023-05-10T03:16:12;10.18;;;5.80;;
57113;SDS011;42994;51.606;9.988;2023-05-10T03:18:42;11.63;;;6.40;;
57113;SDS011;42994;51.606;9.988;2023-05-10T03:21:14;7.60;;;5.93;;
57113;SDS011;42994;51.606;9.988;2023-05-10T03:26:15;14.13;;;5.45;;
57113;SDS011;42994;51.606;9.988;2023-05-10T03:28:48;9.23;;;5.10;;
57113;SDS011;42994;51.606;9.988;2023-05-10T03:31:17;6.68;;;4.47;;
57113;SDS011;42994;51.606;9.988;2023-05-10T03:33:47;5.57;;;4.43;;
57113;SDS011;42994;51.606;9.988;2023-05-10T03:38:42;4.10;;;3.10;;
57113;SDS011;42994;51.606;9.988;2023-05-10T03:41:10;4.68;;;3.65;;
57113;SDS011;42994;51.606;9.988;2023-05-10T03:43:36;7.05;;;4.25;;
57113;SDS011;42994;51.606;9.988;2023-05-10T03:46:05;4.57;;;3.00;;
57113;SDS011;42994;51.606;9.988;2023-05-10T03:48:32;5.97;;;3.80;;
57113;SDS011;42994;51.606;9.988;2023-05-10T03:50:59;8.60;;;5.40;;
57113;SDS011;42994;51.606;9.988;2023-05-10T03:53:26;10.55;;;6.47;;
57113;SDS011;42994;51.606;9.988;2023-05-10T03:55:53;10.90;;;5.68;;
57113;SDS011;42994;51.606;9.988;2023-05-10T03:58:19;8.18;;;5.20;;
57113;SDS011;42994;51.606;9.988;2023-05-10T04:00:46;6.75;;;4.88;;
57113;SDS011;42994;51.606;9.988;2023-05-10T04:03:15;6.72;;;4.70;;
57113;SDS011;42994;51.606;9.988;2023-05-10T04:05:42;10.02;;;5.75;;
57113;SDS011;42994;51.606;9.988;2023-05-10T04:08:08;9.18;;;5.95;;
57113;SDS011;42994;51.606;9.988;2023-05-10T04:10:35;11.20;;;5.97;;
57113;SDS011;42994;51.606;9.988;2023-05-10T04:13:02;10.90;;;5.47;;
57113;SDS011;42994;51.606;9.988;2023-05-10T04:15:28;9.68;;;5.22;;
57113;SDS011;42994;51.606;9.988;2023-05-10T04:17:55;9.32;;;5.13;;
57113;SDS011;42994;51.606;9.988;2023-05-10T04:20:23;8.32;;;4.65;;
57113;SDS011;42994;51.606;9.988;2023-05-10T04:22:49;10.23;;;5.13;;
57113;SDS011;42994;51.606;9.988;2023-05-10T04:25:16;7.70;;;5.50;;
57113;SDS011;42994;51.606;9.988;2023-05-10T04:27:42;6.47;;;5.78;;
57113;SDS011;42994;51.606;9.988;2023-05-10T04:30:09;11.68;;;5.60;;
57113;SDS011;42994;51.606;9.988;2023-05-10T04:32:36;6.85;;;4.72;;
57113;SDS011;42994;51.606;9.988;2023-05-10T04:35:03;8.15;;;5.50;;
57113;SDS011;42994;51.606;9.988;2023-05-10T04:37:31;6.72;;;4.80;;
57113;SDS011;42994;51.606;9.988;2023-05-10T04:39:58;9.45;;;4.80;;
57113;SDS011;42994;51.606;9.988;2023-05-10T04:42:25;7.50;;;4.65;;
57113;SDS011;42994;51.606;9.988;2023-05-10T04:44:52;7.32;;;4.60;;
57113;SDS011;42994;51.606;9.988;2023-05-10T04:47:19;6.40;;;4.82;;
57113;SDS011;42994;51.606;9.988;2023-05-10T04:49:45;8.77;;;4.78;;
57113;SDS011;42994;51.606;9.988;2023-05-10T04:52:12;6.65;;;5.30;;
57113;SDS011;42994;51.606;9.988;2023-05-10T04:54:40;13.32;;;6.07;;
57113;SDS011;42994;51.606;9.988;2023-05-10T04:57:07;7.65;;;5.47;;
57113;SDS011;42994;51.606;9.988;2023-05-10T04:59:35;7.65;;;6.15;;
57113;SDS011;42994;51.606;9.988;2023-05-10T05:02:01;7.60;;;6.10;;
57113;SDS011;42994;51.606;9.988;2023-05-10T05:04:29;7.55;;;5.97;;
57113;SDS011;42994;51.606;9.988;2023-05-10T05:06:56;6.85;;;5.47;;
57113;SDS011;42994;51.606;9.988;2023-05-10T05:09:22;6.07;;;5.22;;
57113;SDS011;42994;51.606;9.988;2023-05-10T05:11:50;6.68;;;5.05;;
57113;SDS011;42994;51.606;9.988;2023-05-10T05:14:17;6.43;;;4.70;;
57113;SDS011;42994;51.606;9.988;2023-05-10T05:16:45;5.22;;;3.97;;
57113;SDS011;42994;51.606;9.988;2023-05-10T05:19:12;8.50;;;5.07;;
57113;SDS011;42994;51.606;9.988;2023-05-10T05:21:39;10.02;;;6.47;;
57113;SDS011;42994;51.606;9.988;2023-05-10T05:24:06;10.15;;;8.13;;
57113;SDS011;42994;51.606;9.988;2023-05-10T05:26:33;15.68;;;7.18;;
57113;SDS011;42994;51.606;9.988;2023-05-10T05:29:01;13.88;;;7.90;;
57113;SDS011;42994;51.606;9.988;2023-05-10T05:31:27;13.15;;;8.27;;
57113;SDS011;42994;51.606;9.988;2023-05-10T05:33:54;7.97;;;6.25;;
57113;SDS011;42994;51.606;9.988;2023-05-10T05:36:21;10.68;;;6.32;;
57113;SDS011;42994;51.606;9.988;2023-05-10T05:38:48;8.90;;;6.32;;
57113;SDS011;42994;51.606;9.988;2023-05-10T05:41:14;10.50;;;7.20;;
57113;SDS011;42994;51.606;9.988;2023-05-10T05:43:41;4.88;;;3.78;;
57113;SDS011;42994;51.606;9.988;2023-05-10T05:46:09;5.28;;;3.30;;
57113;SDS011;42994;51.606;9.988;2023-05-10T05:48:35;3.33;;;2.70;;
57113;SDS011;42994;51.606;9.988;2023-05-10T05:51:02;3.50;;;3.20;;
57113;SDS011;42994;51.606;9.988;2023-05-10T05:53:29;3.38;;;3.08;;
57113;SDS011;42994;51.606;9.988;2023-05-10T05:55:56;4.75;;;3.22;;
57113;SDS011;42994;51.606;9.988;2023-05-10T05:58:24;3.55;;;2.78;;
57113;SDS011;42994;51.606;9.988;2023-05-10T06:00:51;3.00;;;2.70;;
57113;SDS011;42994;51.606;9.988;2023-05-10T06:03:20;4.30;;;2.80;;
57113;SDS011;42994;51.606;9.988;2023-05-10T06:05:49;3.17;;;2.78;;
57113;SDS011;42994;51.606;9.988;2023-05-10T06:08:15;2.90;;;2.60;;
57113;SDS011;42994;51.606;9.988;2023-05-10T06:10:42;3.72;;;1.90;;
57113;SDS011;42994;51.606;9.988;2023-05-10T06:13:09;2.53;;;2.33;;
57113;SDS011;42994;51.606;9.988;2023-05-10T06:15:36;2.63;;;2.15;;
57113;SDS011;42994;51.606;9.988;2023-05-10T06:18:02;4.35;;;2.20;;
57113;SDS011;42994;51.606;9.988;2023-05-10T06:20:30;4.78;;;2.10;;
57113;SDS011;42994;51.606;9.988;2023-05-10T06:22:57;2.75;;;2.03;;
57113;SDS011;42994;51.606;9.988;2023-05-10T06:25:24;2.67;;;2.40;;
57113;SDS011;42994;51.606;9.988;2023-05-10T06:27:51;2.30;;;2.10;;
57113;SDS011;42994;51.606;9.988;2023-05-10T06:30:22;1.90;;;1.80;;
57113;SDS011;42994;51.606;9.988;2023-05-10T06:32:52;2.10;;;1.90;;
57113;SDS011;42994;51.606;9.988;2023-05-10T06:35:19;1.77;;;1.67;;
57113;SDS011;42994;51.606;9.988;2023-05-10T06:37:47;1.80;;;1.70;;
57113;SDS011;42994;51.606;9.988;2023-05-10T06:40:13;2.00;;;1.90;;
57113;SDS011;42994;51.606;9.988;2023-05-10T06:42:40;1.95;;;1.75;;
57113;SDS011;42994;51.606;9.988;2023-05-10T06:45:07;3.50;;;1.63;;
57113;SDS011;42994;51.606;9.988;2023-05-10T06:47:35;2.88;;;1.80;;
57113;SDS011;42994;51.606;9.988;2023-05-10T06:50:01;2.78;;;1.80;;
57113;SDS011;42994;51.606;9.988;2023-05-10T06:52:28;2.05;;;1.85;;
57113;SDS011;42994;51.606;9.988;2023-05-10T06:54:56;2.22;;;2.03;;
57113;SDS011;42994;51.606;9.988;2023-05-10T06:57:23;1.73;;;1.63;;
57113;SDS011;42994;51.606;9.988;2023-05-10T06:59:50;1.70;;;1.60;;
57113;SDS011;42994;51.606;9.988;2023-05-10T07:02:16;1.40;;;1.30;;
57113;SDS011;42994;51.606;9.988;2023-05-10T07:04:43;1.48;;;1.38;;
57113;SDS011;42994;51.606;9.988;2023-05-10T07:07:09;2.17;;;1.58;;
57113;SDS011;42994;51.606;9.988;2023-05-10T07:09:36;2.78;;;2.08;;
57113;SDS011;42994;51.606;9.988;2023-05-10T07:12:04;1.50;;;1.40;;
57113;SDS011;42994;51.606;9.988;2023-05-10T07:14:31;2.58;;;1.67;;
57113;SDS011;42994;51.606;9.988;2023-05-10T07:16:57;1.75;;;1.50;;
57113;SDS011;42994;51.606;9.988;2023-05-10T07:19:24;2.00;;;1.63;;
57113;SDS011;42994;51.606;9.988;2023-05-10T07:21:51;1.55;;;1.42;;
57113;SDS011;42994;51.606;9.988;2023-05-10T07:24:17;15.40;;;2.45;;
57113;SDS011;42994;51.606;9.988;2023-05-10T07:26:44;5.13;;;1.70;;
57113;SDS011;42994;51.606;9.988;2023-05-10T07:29:12;1.73;;;1.23;;
57113;SDS011;42994;51.606;9.988;2023-05-10T07:31:38;1.17;;;1.08;;
57113;SDS011;42994;51.606;9.988;2023-05-10T07:34:06;0.57;;;0.57;;
57113;SDS011;42994;51.606;9.988;2023-05-10T07:36:33;2.35;;;0.98;;
57113;SDS011;42994;51.606;9.988;2023-05-10T07:39:00;0.73;;;0.60;;
57113;SDS011;42994;51.606;9.988;2023-05-10T07:41:27;0.63;;;0.60;;
57113;SDS011;42994;51.606;9.988;2023-05-10T07:43:55;1.00;;;0.65;;
57113;SDS011;42994;51.606;9.988;2023-05-10T07:46:23;4.95;;;1.17;;
57113;SDS011;42994;51.606;9.988;2023-05-10T07:48:49;0.70;;;0.70;;
57113;SDS011;42994;51.606;9.988;2023-05-10T07:51:16;2.97;;;0.80;;
57113;SDS011;42994;51.606;9.988;2023-05-10T07:53:43;1.42;;;0.63;;
57113;SDS011;42994;51.606;9.988;2023-05-10T07:56:20;1.63;;;0.60;;
57113;SDS011;42994;51.606;9.988;2023-05-10T07:58:48;0.73;;;0.60;;
57113;SDS011;42994;51.606;9.988;2023-05-10T08:01:15;1.00;;;0.55;;
57113;SDS011;42994;51.606;9.988;2023-05-10T08:03:43;1.70;;;0.70;;
57113;SDS011;42994;51.606;9.988;2023-05-10T08:06:10;0.98;;;0.77;;
57113;SDS011;42994;51.606;9.988;2023-05-10T08:08:37;0.60;;;0.60;;
57113;SDS011;42994;51.606;9.988;2023-05-10T08:11:04;0.50;;;0.50;;
57113;SDS011;42994;51.606;9.988;2023-05-10T08:13:30;0.90;;;0.60;;
57113;SDS011;42994;51.606;9.988;2023-05-10T08:15:57;1.35;;;0.60;;
57113;SDS011;42994;51.606;9.988;2023-05-10T08:18:24;0.60;;;0.60;;
57113;SDS011;42994;51.606;9.988;2023-05-10T08:20:52;0.80;;;0.80;;
57113;SDS011;42994;51.606;9.988;2023-05-10T08:23:18;4.85;;;0.93;;
57113;SDS011;42994;51.606;9.988;2023-05-10T08:25:45;0.70;;;0.70;;
57113;SDS011;42994;51.606;9.988;2023-05-10T08:28:12;3.90;;;0.85;;
57113;SDS011;42994;51.606;9.988;2023-05-10T08:30:38;1.08;;;1.00;;
57113;SDS011;42994;51.606;9.988;2023-05-10T08:33:05;0.75;;;0.75;;
57113;SDS011;42994;51.606;9.988;2023-05-10T08:35:31;1.38;;;0.98;;
57113;SDS011;42994;51.606;9.988;2023-05-10T08:38:01;0.65;;;0.65;;
57113;SDS011;42994;51.606;9.988;2023-05-10T08:40:28;3.55;;;0.90;;
57113;SDS011;42994;51.606;9.988;2023-05-10T08:42:55;1.33;;;1.23;;
57113;SDS011;42994;51.606;9.988;2023-05-10T08:45:25;1.10;;;1.00;;
57113;SDS011;42994;51.606;9.988;2023-05-10T08:47:56;1.30;;;1.13;;
57113;SDS011;42994;51.606;9.988;2023-05-10T08:50:23;1.33;;;1.23;;
57113;SDS011;42994;51.606;9.988;2023-05-10T08:52:51;1.77;;;1.27;;
57113;SDS011;42994;51.606;9.988;2023-05-10T08:55:22;1.63;;;1.52;;
57113;SDS011;42994;51.606;9.988;2023-05-10T08:57:50;1.00;;;1.00;;
57113;SDS011;42994;51.606;9.988;2023-05-10T09:00:17;2.35;;;1.52;;
57113;SDS011;42994;51.606;9.988;2023-05-10T09:02:44;1.33;;;1.20;;
57113;SDS011;42994;51.606;9.988;2023-05-10T09:05:11;1.58;;;1.40;;
57113;SDS011;42994;51.606;9.988;2023-05-10T09:07:40;1.10;;;1.05;;
57113;SDS011;42994;51.606;9.988;2023-05-10T09:10:08;1.38;;;1.27;;
57113;SDS011;42994;51.606;9.988;2023-05-10T09:12:38;1.20;;;1.10;;
57113;SDS011;42994;51.606;9.988;2023-05-10T09:15:05;1.45;;;1.23;;
57113;SDS011;42994;51.606;9.988;2023-05-10T09:17:33;1.88;;;0.90;;
57113;SDS011;42994;51.606;9.988;2023-05-10T09:20:00;0.80;;;0.80;;
57113;SDS011;42994;51.606;9.988;2023-05-10T09:22:27;1.17;;;0.77;;
57113;SDS011;42994;51.606;9.988;2023-05-10T09:25:03;0.90;;;0.80;;
57113;SDS011;42994;51.606;9.988;2023-05-10T09:27:31;1.38;;;0.80;;
57113;SDS011;42994;51.606;9.988;2023-05-10T09:29:59;0.60;;;0.60;;
57113;SDS011;42994;51.606;9.988;2023-05-10T09:32:35;0.63;;;0.50;;
57113;SDS011;42994;51.606;9.988;2023-05-10T09:35:06;1.00;;;0.80;;
57113;SDS011;42994;51.606;9.988;2023-05-10T09:37:34;1.23;;;0.68;;
57113;SDS011;42994;51.606;9.988;2023-05-10T09:40:03;1.35;;;0.65;;
57113;SDS011;42994;51.606;9.988;2023-05-10T09:42:33;0.73;;;0.73;;
57113;SDS011;42994;51.606;9.988;2023-05-10T09:45:02;1.23;;;0.55;;
57113;SDS011;42994;51.606;9.988;2023-05-10T09:47:31;1.35;;;0.60;;
57113;SDS011;42994;51.606;9.988;2023-05-10T09:49:59;0.70;;;0.68;;
57113;SDS011;42994;51.606;9.988;2023-05-10T09:52:29;1.83;;;0.70;;
57113;SDS011;42994;51.606;9.988;2023-05-10T09:54:56;1.85;;;0.80;;
57113;SDS011;42994;51.606;9.988;2023-05-10T09:57:23;0.47;;;0.47;;
57113;SDS011;42994;51.606;9.988;2023-05-10T09:59:50;2.10;;;0.60;;
57113;SDS011;42994;51.606;9.988;2023-05-10T10:02:20;0.60;;;0.60;;
57113;SDS011;42994;51.606;9.988;2023-05-10T10:04:49;1.13;;;0.65;;
57113;SDS011;42994;51.606;9.988;2023-05-10T10:07:17;5.32;;;0.90;;
57113;SDS011;42994;51.606;9.988;2023-05-10T10:09:49;1.45;;;0.70;;
57113;SDS011;42994;51.606;9.988;2023-05-10T10:12:16;1.65;;;0.70;;
57113;SDS011;42994;51.606;9.988;2023-05-10T10:14:42;1.50;;;0.63;;
57113;SDS011;42994;51.606;9.988;2023-05-10T10:17:09;1.27;;;0.70;;
57113;SDS011;42994;51.606;9.988;2023-05-10T10:19:37;0.50;;;0.50;;
57113;SDS011;42994;51.606;9.988;2023-05-10T10:22:04;1.27;;;0.73;;
57113;SDS011;42994;51.606;9.988;2023-05-10T10:24:31;1.85;;;0.73;;
57113;SDS011;42994;51.606;9.988;2023-05-10T10:27:00;1.25;;;0.50;;
57113;SDS011;42994;51.606;9.988;2023-05-10T10:29:36;1.67;;;0.40;;
57113;SDS011;42994;51.606;9.988;2023-05-10T10:32:08;1.92;;;0.52;;
57113;SDS011;42994;51.606;9.988;2023-05-10T10:34:46;0.70;;;0.60;;
57113;SDS011;42994;51.606;9.988;2023-05-10T10:37:13;1.30;;;0.68;;
57113;SDS011;42994;51.606;9.988;2023-05-10T10:39:40;2.10;;;0.98;;
57113;SDS011;42994;51.606;9.988;2023-05-10T10:42:06;2.08;;;0.73;;
57113;SDS011;42994;51.606;9.988;2023-05-10T10:44:36;1.75;;;0.70;;
57113;SDS011;42994;51.606;9.988;2023-05-10T10:47:05;1.83;;;0.70;;
57113;SDS011;42994;51.606;9.988;2023-05-10T10:49:43;2.10;;;0.63;;
57113;SDS011;42994;51.606;9.988;2023-05-10T10:52:20;1.17;;;0.60;;
57113;SDS011;42994;51.606;9.988;2023-05-10T10:54:49;0.93;;;0.70;;
57113;SDS011;42994;51.606;9.988;2023-05-10T10:57:18;2.72;;;0.60;;
57113;SDS011;42994;51.606;9.988;2023-05-10T10:59:46;3.10;;;0.68;;
57113;SDS011;42994;51.606;9.988;2023-05-10T11:02:32;1.05;;;0.40;;
57113;SDS011;42994;51.606;9.988;2023-05-10T11:05:00;2.28;;;0.52;;
57113;SDS011;42994;51.606;9.988;2023-05-10T11:07:54;1.55;;;0.98;;
57113;SDS011;42994;51.606;9.988;2023-05-10T11:10:21;1.00;;;0.73;;
57113;SDS011;42994;51.606;9.988;2023-05-10T11:12:52;1.92;;;1.00;;
57113;SDS011;42994;51.606;9.988;2023-05-10T11:15:28;2.33;;;0.73;;
57113;SDS011;42994;51.606;9.988;2023-05-10T11:17:55;1.10;;;0.82;;
57113;SDS011;42994;51.606;9.988;2023-05-10T11:20:22;2.42;;;0.80;;
57113;SDS011;42994;51.606;9.988;2023-05-10T11:22:55;1.00;;;0.73;;
57113;SDS011;42994;51.606;9.988;2023-05-10T11:25:26;2.92;;;0.90;;
57113;SDS011;42994;51.606;9.988;2023-05-10T11:27:53;0.98;;;0.80;;
57113;SDS011;42994;51.606;9.988;2023-05-10T11:30:19;1.23;;;0.77;;
57113;SDS011;42994;51.606;9.988;2023-05-10T11:32:47;4.55;;;0.95;;
57113;SDS011;42994;51.606;9.988;2023-05-10T11:35:14;1.95;;;1.10;;
57113;SDS011;42994;51.606;9.988;2023-05-10T11:37:41;0.93;;;0.70;;
57113;SDS011;42994;51.606;9.988;2023-05-10T11:40:11;1.65;;;1.00;;
57113;SDS011;42994;51.606;9.988;2023-05-10T11:42:38;1.85;;;1.15;;
57113;SDS011;42994;51.606;9.988;2023-05-10T11:45:05;2.92;;;1.40;;
57113;SDS011;42994;51.606;9.988;2023-05-10T11:47:33;2.38;;;1.20;;
57113;SDS011;42994;51.606;9.988;2023-05-10T11:50:02;2.03;;;1.10;;
57113;SDS011;42994;51.606;9.988;2023-05-10T11:52:29;2.25;;;1.48;;
57113;SDS011;42994;51.606;9.988;2023-05-10T11:55:02;3.80;;;1.30;;
57113;SDS011;42994;51.606;9.988;2023-05-10T11:57:30;3.25;;;1.98;;
57113;SDS011;42994;51.606;9.988;2023-05-10T11:59:57;2.35;;;1.20;;
57113;SDS011;42994;51.606;9.988;2023-05-10T12:02:24;2.83;;;1.45;;
57113;SDS011;42994;51.606;9.988;2023-05-10T12:04:51;2.03;;;1.10;;
57113;SDS011;42994;51.606;9.988;2023-05-10T12:07:18;2.63;;;1.63;;
57113;SDS011;42994;51.606;9.988;2023-05-10T12:12:36;1.42;;;1.33;;
57113;SDS011;42994;51.606;9.988;2023-05-10T12:15:04;3.88;;;1.48;;
57113;SDS011;42994;51.606;9.988;2023-05-10T12:17:32;1.73;;;1.30;;
57113;SDS011;42994;51.606;9.988;2023-05-10T12:19:59;2.47;;;1.55;;
57113;SDS011;42994;51.606;9.988;2023-05-10T12:22:39;1.30;;;1.20;;
57113;SDS011;42994;51.606;9.988;2023-05-10T12:25:06;1.33;;;1.10;;
57113;SDS011;42994;51.606;9.988;2023-05-10T12:27:34;1.30;;;1.20;;
57113;SDS011;42994;51.606;9.988;2023-05-10T12:30:03;1.48;;;1.05;;
57113;SDS011;42994;51.606;9.988;2023-05-10T12:32:37;1.67;;;1.20;;
57113;SDS011;42994;51.606;9.988;2023-05-10T12:35:04;1.45;;;1.30;;
57113;SDS011;42994;51.606;9.988;2023-05-10T12:37:32;2.42;;;1.70;;
57113;SDS011;42994;51.606;9.988;2023-05-10T12:40:04;2.40;;;1.50;;
57113;SDS011;42994;51.606;9.988;2023-05-10T12:42:33;2.05;;;1.55;;
57113;SDS011;42994;51.606;9.988;2023-05-10T12:45:02;2.88;;;2.05;;
57113;SDS011;42994;51.606;9.988;2023-05-10T12:47:29;1.90;;;1.73;;
57113;SDS011;42994;51.606;9.988;2023-05-10T12:49:56;2.47;;;2.28;;
57113;SDS011;42994;51.606;9.988;2023-05-10T12:52:22;5.28;;;2.17;;
57113;SDS011;42994;51.606;9.988;2023-05-10T12:54:49;4.93;;;2.05;;
57113;SDS011;42994;51.606;9.988;2023-05-10T12:57:16;2.42;;;2.10;;
57113;SDS011;42994;51.606;9.988;2023-05-10T12:59:42;2.58;;;2.00;;
57113;SDS011;42994;51.606;9.988;2023-05-10T13:02:10;2.85;;;2.17;;
57113;SDS011;42994;51.606;9.988;2023-05-10T13:04:37;1.90;;;1.80;;
57113;SDS011;42994;51.606;9.988;2023-05-10T13:07:05;2.60;;;2.20;;
57113;SDS011;42994;51.606;9.988;2023-05-10T13:09:31;2.17;;;1.98;;
57113;SDS011;42994;51.606;9.988;2023-05-10T13:11:58;2.88;;;1.88;;
57113;SDS011;42994;51.606;9.988;2023-05-10T13:14:25;2.47;;;2.28;;
57113;SDS011;42994;51.606;9.988;2023-05-10T13:16:52;4.53;;;2.25;;
57113;SDS011;42994;51.606;9.988;2023-05-10T13:19:20;4.95;;;2.50;;
57113;SDS011;42994;51.606;9.988;2023-05-10T13:21:46;2.45;;;1.88;;
57113;SDS011;42994;51.606;9.988;2023-05-10T13:24:13;4.07;;;1.92;;
57113;SDS011;42994;51.606;9.988;2023-05-10T13:26:40;2.80;;;2.03;;
57113;SDS011;42994;51.606;9.988;2023-05-10T13:29:06;2.83;;;2.10;;
57113;SDS011;42994;51.606;9.988;2023-05-10T13:31:34;4.78;;;2.35;;
57113;SDS011;42994;51.606;9.988;2023-05-10T13:34:01;2.78;;;2.47;;
57113;SDS011;42994;51.606;9.988;2023-05-10T13:36:29;3.90;;;2.30;;
57113;SDS011;42994;51.606;9.988;2023-05-10T13:38:56;2.25;;;2.05;;
57113;SDS011;42994;51.606;9.988;2023-05-10T13:41:23;5.35;;;2.40;;
57113;SDS011;42994;51.606;9.988;2023-05-10T13:43:50;2.13;;;1.98;;
57113;SDS011;42994;51.606;9.988;2023-05-10T13:46:17;2.50;;;2.08;;
57113;SDS011;42994;51.606;9.988;2023-05-10T13:48:44;2.50;;;1.90;;
57113;SDS011;42994;51.606;9.988;2023-05-10T13:51:10;1.85;;;1.70;;
57113;SDS011;42994;51.606;9.988;2023-05-10T13:53:39;5.90;;;2.05;;
57113;SDS011;42994;51.606;9.988;2023-05-10T13:56:05;5.07;;;2.25;;
57113;SDS011;42994;51.606;9.988;2023-05-10T13:58:32;4.03;;;2.13;;
57113;SDS011;42994;51.606;9.988;2023-05-10T14:01:00;1.92;;;1.73;;
57113;SDS011;42994;51.606;9.988;2023-05-10T14:03:26;2.22;;;1.90;;
57113;SDS011;42994;51.606;9.988;2023-05-10T14:05:53;2.78;;;2.00;;
57113;SDS011;42994;51.606;9.988;2023-05-10T14:08:19;2.13;;;2.03;;
57113;SDS011;42994;51.606;9.988;2023-05-10T14:10:48;5.53;;;2.30;;
57113;SDS011;42994;51.606;9.988;2023-05-10T14:13:15;2.90;;;1.90;;
57113;SDS011;42994;51.606;9.988;2023-05-10T14:15:42;2.05;;;1.83;;
57113;SDS011;42994;51.606;9.988;2023-05-10T14:18:09;2.42;;;2.13;;
57113;SDS011;42994;51.606;9.988;2023-05-10T14:20:35;2.75;;;2.00;;
57113;SDS011;42994;51.606;9.988;2023-05-10T14:23:02;2.60;;;2.40;;
57113;SDS011;42994;51.606;9.988;2023-05-10T14:25:28;2.58;;;2.13;;
57113;SDS011;42994;51.606;9.988;2023-05-10T14:27:57;3.38;;;2.47;;
57113;SDS011;42994;51.606;9.988;2023-05-10T14:30:23;2.35;;;2.13;;
57113;SDS011;42994;51.606;9.988;2023-05-10T14:32:50;1.75;;;1.63;;
57113;SDS011;42994;51.606;9.988;2023-05-10T14:35:19;1.98;;;1.70;;
57113;SDS011;42994;51.606;9.988;2023-05-10T14:37:45;3.28;;;1.50;;
57113;SDS011;42994;51.606;9.988;2023-05-10T14:40:12;1.85;;;1.40;;
57113;SDS011;42994;51.606;9.988;2023-05-10T14:42:40;3.42;;;1.70;;
57113;SDS011;42994;51.606;9.988;2023-05-10T14:45:10;2.78;;;1.17;;
57113;SDS011;42994;51.606;9.988;2023-05-10T14:47:37;1.55;;;1.45;;
57113;SDS011;42994;51.606;9.988;2023-05-10T14:50:04;2.80;;;1.70;;
57113;SDS011;42994;51.606;9.988;2023-05-10T14:52:31;2.13;;;1.20;;
57113;SDS011;42994;51.606;9.988;2023-05-10T14:54:58;7.80;;;1.77;;
57113;SDS011;42994;51.606;9.988;2023-05-10T14:57:26;1.90;;;1.50;;
57113;SDS011;42994;51.606;9.988;2023-05-10T14:59:54;1.33;;;1.10;;
57113;SDS011;42994;51.606;9.988;2023-05-10T15:02:22;4.28;;;1.17;;